Terminal Aerodrome Forecast
Issued by NWS Des Moines, IA

Home | Current Version | Previous Version | Text Only | Print | Product List | Glossary On
Versions: 1 2 3 4 5 6 7 8 9 10 11 12 13 14 15 16 17 18 19 20 21 22 23 24 25 26 27 28 29 30
000
FTUS43 KDMX 301740
TAFDSM
TAF
KDSM 301740Z 3018/0118 11008KT 5SM BR OVC008
     FM301930 12011KT P6SM SCT010 BKN150
     FM010500 12012KT 6SM -SHRA SCT015 BKN040
     FM010800 13011KT 5SM -TSRA BR BKN016CB
     FM011300 15010KT 6SM -SHRA BKN022=

USA.gov is the U.S. government's official web portal to all federal, state and local government web resources and services.